Time;durP1;ratioP1;P1;durP2;ratioP2;P2;SDS_P1;SDS_P2;PMS_P1;PMS_P2;Temp;Humidity;BMP_temperature;BMP_pressure;BME280_temperature;BME280_humidity;BME280_pressure;Samples;Min_cycle;Max_cycle;Signal;HPM_P1;HPM_P2
2021/03/26 00:01:48;;;;;;;11.02;5.50;;;11.00;99.90;;;11.33;61.10;101687.69;5074346;28;20516;-73
2021/03/26 00:04:18;;;;;;;7.43;5.10;;;11.00;99.90;;;11.28;61.59;101686.78;5074109;28;20482;-74
2021/03/26 00:06:49;;;;;;;9.57;5.57;;;11.00;99.90;;;11.13;61.63;101662.00;5074035;28;20041;-73
2021/03/26 00:09:19;;;;;;;7.40;5.38;;;11.00;99.90;;;11.27;61.88;101687.66;5074149;28;20041;-74
2021/03/26 00:11:47;;;;;;;6.88;4.47;;;11.00;99.90;;;11.21;61.93;101682.31;5073809;28;20051;-73
2021/03/26 00:14:17;;;;;;;7.80;4.82;;;10.90;99.90;;;11.18;61.98;101677.03;5074212;28;20037;-73
2021/03/26 00:16:46;;;;;;;14.23;6.72;;;11.00;99.90;;;11.18;62.21;101674.38;5073820;28;20056;-73
2021/03/26 00:19:14;;;;;;;8.95;5.32;;;10.90;99.90;;;11.20;62.43;101675.25;5073303;28;20075;-73
2021/03/26 00:21:41;;;;;;;7.88;5.00;;;10.90;99.90;;;11.18;62.47;101671.72;5074064;28;20046;-73
2021/03/26 00:24:11;;;;;;;9.88;5.75;;;10.90;99.90;;;11.18;62.67;101670.81;5073635;28;20045;-74
2021/03/26 00:26:39;;;;;;;10.70;5.85;;;10.90;99.90;;;11.01;62.96;101646.91;5073527;28;20526;-73
2021/03/26 00:29:20;;;;;;;8.23;5.32;;;10.90;99.90;;;11.13;62.94;101662.84;5073884;28;20091;-73
2021/03/26 00:31:48;;;;;;;13.45;5.70;;;10.90;99.90;;;11.15;62.92;101666.38;5073626;28;20071;-73
2021/03/26 00:34:17;;;;;;;9.52;5.35;;;10.90;99.90;;;11.14;63.02;101669.94;5073334;28;20496;-74
2021/03/26 00:36:46;;;;;;;12.38;5.75;;;10.80;99.90;;;10.59;63.30;101567.22;5072061;28;20508;-73
2021/03/26 00:39:13;;;;;;;9.35;6.68;;;10.80;99.90;;;11.08;63.54;101667.25;5073544;28;20052;-73
2021/03/26 00:41:40;;;;;;;13.00;6.55;;;10.80;99.90;;;10.42;63.47;101553.00;5073888;28;20052;-74
2021/03/26 00:44:09;;;;;;;14.43;6.25;;;10.80;99.90;;;11.08;63.54;101664.59;5073368;28;20040;-73
2021/03/26 00:46:41;;;;;;;12.93;6.18;;;10.80;99.90;;;11.07;63.56;101657.50;5072209;28;20127;-73
2021/03/26 00:49:09;;;;;;;10.57;6.97;;;10.80;99.90;;;10.94;63.49;101642.44;5073287;28;20105;-73
2021/03/26 00:51:38;;;;;;;14.95;6.82;;;10.80;99.90;;;10.95;63.79;101635.38;5073423;28;20097;-74
2021/03/26 00:54:07;;;;;;;10.77;6.22;;;10.80;99.90;;;11.11;63.51;101648.72;5073267;28;20040;-73
2021/03/26 00:56:35;;;;;;;13.10;7.40;;;10.80;99.90;;;11.02;63.51;101669.84;5071930;28;20087;-74
2021/03/26 00:59:04;;;;;;;15.00;7.18;;;10.80;99.90;;;11.00;63.97;101653.06;5071832;28;20052;-73
2021/03/26 01:01:32;;;;;;;12.65;7.00;;;10.70;99.90;;;10.97;63.99;101652.16;5072002;28;20052;-73
2021/03/26 01:04:00;;;;;;;12.40;7.05;;;10.70;99.90;;;10.96;64.28;101640.69;5071802;28;20048;-73
2021/03/26 01:06:30;;;;;;;13.73;7.30;;;10.70;99.90;;;10.81;64.52;101627.34;5071828;28;20051;-73
2021/03/26 01:09:00;;;;;;;12.30;6.85;;;10.60;99.90;;;10.92;64.51;101644.19;5071776;28;20291;-73
2021/03/26 01:11:31;;;;;;;13.80;6.88;;;10.60;99.90;;;10.61;64.77;101591.94;5071664;28;20141;-73
2021/03/26 01:14:13;;;;;;;14.20;7.25;;;10.60;99.90;;;10.83;64.41;101638.84;5072892;28;20048;-73
2021/03/26 01:16:41;;;;;;;18.48;8.35;;;10.60;99.90;;;10.88;64.52;101639.75;5071505;28;20048;-73
2021/03/26 01:19:12;;;;;;;14.57;7.57;;;10.60;99.90;;;10.79;64.58;101635.28;5071989;28;20053;-73
2021/03/26 01:21:41;;;;;;;13.18;7.93;;;10.60;99.90;;;10.88;64.79;101634.44;5072913;28;20045;-73
2021/03/26 01:24:17;;;;;;;17.33;8.27;;;10.60;99.90;;;10.41;64.69;101545.97;5071547;28;20135;-73
2021/03/26 01:26:48;;;;;;;14.48;8.00;;;10.60;99.90;;;10.95;64.57;101630.97;5071404;28;20048;-73
2021/03/26 01:29:37;;;;;;;13.65;7.65;;;10.60;99.90;;;10.97;64.64;101633.63;5071390;28;20056;-73
2021/03/26 01:32:09;;;;;;;11.95;8.02;;;10.70;99.90;;;11.04;64.38;101633.69;5070772;28;20055;-73
2021/03/26 01:34:42;;;;;;;16.73;8.77;;;10.70;99.90;;;11.09;64.34;101631.06;5071311;28;20052;-73
2021/03/26 01:37:10;;;;;;;15.93;9.27;;;10.80;99.90;;;11.07;64.24;101623.09;5071216;28;20040;-73
2021/03/26 01:39:45;;;;;;;17.00;8.65;;;10.80;99.90;;;11.11;63.93;101621.38;5071530;28;20040;-73
2021/03/26 01:42:24;;;;;;;15.82;7.88;;;10.80;99.90;;;11.06;63.73;101615.16;5071456;28;20048;-74
2021/03/26 01:44:52;;;;;;;17.98;8.15;;;10.80;99.90;;;11.11;63.61;101619.59;5071503;28;20512;-73
2021/03/26 01:47:26;;;;;;;14.43;8.30;;;10.80;99.90;;;11.06;63.54;101607.19;5071178;28;20486;-73
2021/03/26 01:49:55;;;;;;;15.55;7.80;;;10.80;99.90;;;11.07;63.22;101612.50;5072343;28;20527;-73
2021/03/26 01:52:23;;;;;;;12.18;7.53;;;10.80;99.90;;;11.09;63.51;101608.09;5071458;28;20079;-71
2021/03/26 01:54:51;;;;;;;12.35;7.45;;;10.80;99.90;;;11.13;63.32;101601.94;5072587;28;20040;-73
2021/03/26 01:57:19;;;;;;;13.27;7.75;;;10.80;99.90;;;11.08;63.18;101594.88;5071256;28;20106;-72
2021/03/26 01:59:56;;;;;;;16.27;7.65;;;10.80;99.90;;;11.10;63.44;101596.66;5071382;28;20055;-73
2021/03/26 02:02:27;;;;;;;11.35;7.22;;;10.80;99.90;;;11.10;62.96;101588.72;5070955;28;20044;-73
2021/03/26 02:05:25;;;;;;;13.48;6.70;;;10.80;99.90;;;11.13;62.68;101590.50;5072443;28;20056;-73
2021/03/26 02:08:05;;;;;;;13.82;8.38;;;10.90;99.90;;;11.18;62.43;101579.03;5072559;28;20052;-73
2021/03/26 02:10:43;;;;;;;11.98;7.13;;;10.90;99.90;;;11.15;62.36;101586.97;5070886;28;20040;-74
2021/03/26 02:13:24;;;;;;;14.38;7.70;;;10.90;99.90;;;11.14;62.32;101574.59;5070620;28;20044;-73
2021/03/26 02:15:55;;;;;;;14.55;7.90;;;10.90;99.90;;;11.00;62.33;101541.00;5070797;28;20045;-73
2021/03/26 02:18:27;;;;;;;16.38;7.28;;;10.90;99.90;;;11.16;62.05;101577.25;5072510;28;20037;-73
2021/03/26 02:21:00;;;;;;;21.40;7.97;;;10.90;99.90;;;11.14;62.17;101576.38;5070888;28;20071;-73
2021/03/26 02:23:30;;;;;;;12.98;8.02;;;10.90;99.90;;;11.10;62.57;101577.22;5072311;28;20040;-74
2021/03/26 02:26:17;;;;;;;18.27;8.88;;;10.90;99.90;;;11.16;62.75;101567.56;5072406;28;20506;-72
2021/03/26 02:28:46;;;;;;;15.27;9.50;;;10.90;99.90;;;10.82;63.17;101526.78;5070956;28;20174;-73
2021/03/26 02:31:34;;;;;;;15.40;9.00;;;10.80;99.90;;;10.96;64.18;101555.09;5071877;28;20049;-73
2021/03/26 02:34:03;;;;;;;14.77;10.00;;;10.70;99.90;;;10.93;64.18;101561.28;5070916;28;20100;-73
2021/03/26 02:36:45;;;;;;;21.52;11.02;;;10.70;99.90;;;10.75;64.50;101526.75;5070806;28;20512;-73
2021/03/26 02:39:30;;;;;;;18.83;11.15;;;10.70;99.90;;;10.97;64.88;101557.78;5071003;28;20068;-73
2021/03/26 02:42:05;;;;;;;21.20;11.25;;;10.70;99.90;;;11.00;65.02;101549.81;5072873;28;20049;-73
2021/03/26 02:45:00;;;;;;;20.85;11.80;;;10.80;99.90;;;10.89;65.60;101544.50;5074482;28;20049;-73
2021/03/26 02:47:53;;;;;;;23.95;11.85;;;10.70;99.90;;;10.86;65.91;101540.94;5074521;28;20174;-72
2021/03/26 02:50:39;;;;;;;19.65;12.30;;;10.70;99.90;;;10.86;66.41;101530.34;5074387;28;20528;-73
2021/03/26 02:53:13;;;;;;;21.25;12.55;;;10.60;99.90;;;10.88;66.41;101534.78;5074452;28;20044;-73
2021/03/26 02:55:53;;;;;;;25.95;13.25;;;10.60;99.90;;;10.86;66.78;101535.63;5074346;28;20044;-74
2021/03/26 02:58:30;;;;;;;21.60;13.18;;;10.60;99.90;;;10.89;67.20;101530.38;5075549;28;20053;-74
2021/03/26 03:01:23;;;;;;;25.30;12.93;;;10.70;99.90;;;10.94;67.16;101535.69;5074597;28;20475;-74
2021/03/26 03:03:58;;;;;;;26.35;14.18;;;10.70;99.90;;;10.97;67.08;101546.28;5074178;28;20052;-73
2021/03/26 03:06:30;;;;;;;23.67;13.48;;;10.70;99.90;;;10.90;67.28;101537.41;5075376;28;20122;-73
2021/03/26 03:09:18;;;;;;;24.20;13.13;;;10.70;99.90;;;10.96;67.29;101541.84;5075297;28;20059;-73
2021/03/26 03:11:51;;;;;;;28.08;14.27;;;10.70;99.90;;;11.07;67.52;101535.72;5075575;28;20037;-73
2021/03/26 03:14:24;;;;;;;24.15;13.25;;;10.70;99.90;;;11.06;67.43;101541.91;5075009;28;20045;-73
2021/03/26 03:16:59;;;;;;;26.23;14.50;;;10.80;99.90;;;11.06;67.65;101543.66;5074064;28;20131;-73
2021/03/26 03:19:39;;;;;;;23.33;14.70;;;10.80;99.90;;;11.00;67.83;101538.34;5074984;28;20041;-73
2021/03/26 03:22:13;;;;;;;25.83;14.77;;;10.80;99.90;;;11.00;68.47;101533.06;5074106;28;20062;-73
2021/03/26 03:24:43;;;;;;;18.92;13.43;;;10.70;99.90;;;11.03;68.98;101518.09;5074890;28;20518;-73
2021/03/26 03:27:37;;;;;;;24.65;14.85;;;10.80;99.90;;;10.82;69.27;101499.44;5073846;28;20044;-73
2021/03/26 03:30:21;;;;;;;22.77;15.10;;;10.80;99.90;;;10.95;69.33;101519.81;5073777;28;20048;-73
2021/03/26 03:33:05;;;;;;;21.88;14.55;;;10.70;99.90;;;11.00;69.74;101527.75;5073757;28;20063;-73
2021/03/26 03:35:51;;;;;;;20.38;14.93;;;10.80;99.90;;;11.01;69.81;101519.84;5073405;28;20052;-73
2021/03/26 03:38:40;;;;;;;22.38;14.13;;;10.80;99.90;;;11.07;69.76;101516.34;5074676;28;20512;-73
2021/03/26 03:41:13;;;;;;;24.73;15.50;;;10.70;99.90;;;11.06;70.21;101518.09;5073470;28;20143;-73
2021/03/26 03:43:57;;;;;;;27.30;15.95;;;10.80;99.90;;;11.06;70.11;101502.22;5073525;28;20047;-73
2021/03/26 03:46:29;;;;;;;21.75;16.05;;;10.80;99.90;;;10.46;70.13;101398.75;5073478;28;20455;-72
2021/03/26 03:49:27;;;;;;;21.58;15.25;;;10.80;99.90;;;11.03;70.20;101511.91;5074242;28;20080;-73
2021/03/26 03:52:03;;;;;;;25.27;15.18;;;10.80;99.90;;;11.05;69.90;101499.56;5073358;28;20048;-72
2021/03/26 03:54:36;;;;;;;26.63;16.88;;;10.80;99.90;;;11.04;69.67;101500.41;5072121;28;20041;-73
2021/03/26 03:57:10;;;;;;;23.55;15.82;;;10.80;99.90;;;11.04;70.03;101509.25;5073006;28;20060;-74
2021/03/26 03:59:46;;;;;;;22.65;15.45;;;10.80;99.90;;;11.06;69.80;101503.97;5072931;28;20052;-73
2021/03/26 04:02:23;;;;;;;24.57;15.97;;;10.80;99.90;;;11.07;69.96;101508.38;5073009;28;20045;-73
2021/03/26 04:05:01;;;;;;;24.95;16.02;;;10.80;99.90;;;11.03;69.66;101504.84;5074254;28;20374;-72
2021/03/26 04:07:34;;;;;;;24.08;15.65;;;10.80;99.90;;;11.07;69.97;101498.66;5073766;28;20076;-73
2021/03/26 04:10:10;;;;;;;21.65;15.27;;;10.80;99.90;;;11.16;69.95;101498.72;5074322;28;20060;-73
2021/03/26 04:12:42;;;;;;;25.20;15.93;;;10.90;99.90;;;11.11;69.80;101489.84;5074116;28;20056;-73
2021/03/26 04:15:23;;;;;;;22.17;15.20;;;10.90;99.90;;;11.13;69.59;101488.09;5072600;28;20576;-73
2021/03/26 04:18:06;;;;;;;18.88;15.23;;;10.90;99.90;;;11.09;69.90;101493.41;5072518;28;20079;-73
2021/03/26 04:21:04;;;;;;;28.02;16.00;;;10.80;99.90;;;11.07;70.00;101482.78;5072634;28;20413;-73
2021/03/26 04:23:56;;;;;;;24.83;14.93;;;10.80;99.90;;;10.81;69.99;101480.06;5072534;28;20102;-74
2021/03/26 04:26:32;;;;;;;26.52;16.00;;;10.80;99.90;;;11.07;70.29;101479.28;5072651;28;20048;-74
2021/03/26 04:29:25;;;;;;;22.60;15.48;;;10.80;99.90;;;11.06;70.16;101486.31;5073559;28;20059;-72
2021/03/26 04:32:08;;;;;;;26.67;16.00;;;10.80;99.90;;;11.09;70.45;101481.03;5072297;28;20127;-73
2021/03/26 04:34:38;;;;;;;27.70;15.40;;;10.90;99.90;;;11.11;70.25;101492.50;5072138;28;20084;-73
2021/03/26 04:37:11;;;;;;;23.48;16.08;;;10.90;99.90;;;11.11;70.31;101471.31;5072303;28;20047;-73
2021/03/26 04:39:53;;;;;;;25.40;15.90;;;10.90;99.90;;;11.18;70.14;101488.13;5072361;28;20044;-73
2021/03/26 04:42:32;;;;;;;25.25;16.98;;;10.90;99.90;;;11.20;69.99;101481.97;5072239;28;20075;-72
2021/03/26 04:45:10;;;;;;;22.35;15.52;;;10.90;99.90;;;11.24;69.80;101481.09;5073348;28;20037;-73
2021/03/26 04:48:01;;;;;;;24.80;15.70;;;10.90;99.90;;;11.28;69.96;101474.03;5072465;28;20151;-73
2021/03/26 04:51:02;;;;;;;24.95;16.50;;;11.00;99.90;;;11.31;69.99;101479.31;5071930;28;20056;-74
2021/03/26 04:53:59;;;;;;;27.27;16.52;;;11.00;99.90;;;11.33;69.56;101477.56;5073004;28;20051;-73
2021/03/26 04:56:30;;;;;;;20.92;15.18;;;11.10;99.90;;;11.22;69.70;101456.38;5071904;28;20076;-73
2021/03/26 04:59:32;;;;;;;21.17;14.80;;;11.10;99.90;;;11.28;69.74;101466.09;5071704;28;20101;-72
2021/03/26 05:02:13;;;;;;;20.77;15.32;;;11.00;99.90;;;11.22;69.86;101472.25;5071760;28;20041;-73
2021/03/26 05:04:46;;;;;;;22.17;15.30;;;11.00;99.90;;;11.15;69.86;101435.19;5071692;28;20060;-73
2021/03/26 05:07:22;;;;;;;22.83;14.95;;;11.00;99.90;;;11.20;70.10;101462.53;5071449;28;20448;-74
2021/03/26 05:10:01;;;;;;;21.27;13.93;;;11.00;99.90;;;11.24;70.12;101465.22;5071674;28;20042;-73
2021/03/26 05:12:45;;;;;;;22.85;15.07;;;11.00;99.90;;;11.27;70.21;101451.97;5071799;28;20045;-73
2021/03/26 05:15:32;;;;;;;22.23;16.08;;;11.00;99.90;;;11.32;70.11;101463.47;5071636;28;20052;-73
2021/03/26 05:18:18;;;;;;;19.63;14.68;;;11.00;99.90;;;11.32;70.04;101458.16;5071546;28;20401;-73
2021/03/26 05:20:57;;;;;;;22.05;14.98;;;11.10;99.90;;;11.34;69.85;101453.72;5071762;28;20079;-73
2021/03/26 05:23:31;;;;;;;22.67;15.77;;;11.10;99.90;;;11.28;70.16;101455.50;5072930;28;20052;-73
2021/03/26 05:26:23;;;;;;;25.02;15.82;;;11.00;99.90;;;11.13;70.06;101429.84;5052876;28;20052;-73
2021/03/26 05:29:11;;;;;;;27.95;15.52;;;11.00;99.90;;;11.32;70.07;101462.56;5065158;28;20059;-73
2021/03/26 05:31:51;;;;;;;23.17;15.80;;;11.10;99.90;;;11.37;70.13;101461.69;5071480;28;20040;-73
2021/03/26 05:34:49;;;;;;;23.50;16.88;;;11.10;99.90;;;11.33;70.09;101465.22;5061198;28;20052;-73
2021/03/26 05:37:25;;;;;;;25.45;16.33;;;11.10;99.90;;;11.32;70.23;101462.56;5071635;28;20135;-74
2021/03/26 05:40:40;;;;;;;25.58;16.67;;;11.10;99.90;;;11.26;70.29;101457.25;5072393;28;20060;-73
2021/03/26 05:43:50;;;;;;;24.52;16.33;;;11.00;99.90;;;11.15;70.08;101430.75;5072812;28;20059;-73
2021/03/26 05:46:49;;;;;;;27.85;18.05;;;11.00;99.90;;;11.24;70.17;101451.97;5071354;28;20101;-73
2021/03/26 05:49:58;;;;;;;27.75;17.30;;;11.00;99.90;;;11.20;70.18;101452.84;5058929;28;20052;-73
2021/03/26 05:52:55;;;;;;;31.27;18.73;;;11.00;99.90;;;11.13;70.58;101455.47;5072569;28;20083;-73
2021/03/26 05:55:44;;;;;;;30.98;18.98;;;10.90;99.90;;;11.07;70.92;101450.16;5071035;28;20051;-73
2021/03/26 05:58:53;;;;;;;28.48;18.88;;;10.90;99.90;;;10.95;71.19;101445.69;5071290;28;20048;-73
2021/03/26 06:01:47;;;;;;;29.98;19.27;;;10.80;99.90;;;10.98;71.66;101443.06;5071059;28;20045;-73
2021/03/26 06:05:24;;;;;;;29.58;19.23;;;10.70;99.90;;;10.98;71.27;101445.69;5072519;28;20589;-71
2021/03/26 06:09:03;;;;;;;34.78;20.70;;;10.70;99.90;;;10.97;71.42;101448.34;5072122;28;20454;-73
2021/03/26 06:12:46;;;;;;;27.58;18.83;;;10.70;99.90;;;10.81;71.78;101440.38;5072262;28;20071;-73
2021/03/26 06:16:01;;;;;;;32.13;19.60;;;10.60;99.90;;;10.60;72.14;101420.88;5060398;28;20056;-73
2021/03/26 06:19:45;;;;;;;32.67;19.83;;;10.50;99.90;;;10.58;72.72;101430.56;5076295;28;20056;-73
2021/03/26 06:23:32;;;;;;;30.02;18.90;;;10.40;99.90;;;10.72;72.24;101429.72;5075891;28;20055;-73
2021/03/26 06:26:56;;;;;;;30.50;18.73;;;10.50;99.90;;;10.91;72.00;101433.34;5074766;28;20048;-72
2021/03/26 06:29:39;;;;;;;31.85;19.48;;;10.60;99.90;;;11.13;71.85;101455.47;5060487;28;20049;-72
2021/03/26 06:33:05;;;;;;;30.17;18.88;;;10.80;99.90;;;11.30;70.63;101433.44;5074762;28;20051;-73
2021/03/26 06:36:22;;;;;;;27.05;19.38;;;11.00;99.90;;;11.49;70.16;101432.59;5044757;28;20048;-73
2021/03/26 06:39:35;;;;;;;25.75;18.58;;;11.20;99.90;;;11.78;69.52;101443.22;5075790;28;20127;-74
2021/03/26 06:42:56;;;;;;;30.30;18.23;;;11.40;99.90;;;12.12;68.57;101442.28;5075879;28;20117;-72
2021/03/26 06:45:53;;;;;;;26.52;18.23;;;11.70;99.90;;;12.43;67.44;101456.38;5075758;28;20063;-71
2021/03/26 06:48:31;;;;;;;24.40;17.08;;;12.10;99.90;;;12.64;66.19;101440.38;5074443;28;20052;-71
2021/03/26 06:51:30;;;;;;;26.30;18.38;;;12.30;99.90;;;12.86;65.76;101436.75;5075487;28;20051;-71
2021/03/26 06:54:18;;;;;;;25.73;17.40;;;12.60;99.90;;;13.07;64.79;101442.00;5075503;28;20044;-69
2021/03/26 06:57:14;;;;;;;24.27;17.55;;;12.80;99.90;;;13.35;64.27;101421.47;5075548;28;20729;-74
2021/03/26 07:00:15;;;;;;;25.52;17.45;;;13.00;99.90;;;13.62;63.25;101442.53;5075146;28;20048;-72
2021/03/26 07:03:15;;;;;;;25.40;16.52;;;13.30;99.90;;;13.84;62.02;101432.59;5075285;28;20055;-77
2021/03/26 07:06:16;;;;;;;21.83;15.88;;;13.50;99.90;;;14.04;61.27;101449.25;5075271;28;20071;-74
2021/03/26 07:09:23;;;;;;;23.58;16.45;;;13.70;99.90;;;14.22;60.55;101451.75;5075416;28;20068;-77
2021/03/26 07:12:10;;;;;;;29.15;16.90;;;13.90;99.90;;;14.12;60.41;101439.41;5075179;28;20556;-74
2021/03/26 07:14:51;;;;;;;26.85;16.73;;;13.80;99.90;;;13.72;60.30;101352.94;5073888;28;20493;-77
2021/03/26 07:17:51;;;;;;;24.85;16.23;;;13.90;99.90;;;14.29;60.11;101454.34;5074997;28;20472;-74
2021/03/26 07:21:00;;;;;;;23.63;16.10;;;14.00;99.90;;;14.44;59.86;101453.28;5075181;28;20055;-78
2021/03/26 07:24:24;;;;;;;20.02;16.00;;;14.20;99.90;;;14.55;59.46;101445.22;5074832;28;20440;-73
2021/03/26 07:27:15;;;;;;;19.85;15.48;;;14.20;99.90;;;14.42;58.79;101463.06;5073714;28;20498;-75
2021/03/26 07:30:15;;;;;;;24.13;15.80;;;14.20;99.90;;;14.43;58.62;101449.78;5074614;28;20048;-77
2021/03/26 07:33:03;;;;;;;20.55;15.80;;;14.20;99.90;;;14.49;58.90;101456.81;5073645;28;20092;-76
2021/03/26 07:35:45;;;;;;;21.80;16.08;;;14.20;99.90;;;14.47;59.21;101442.63;5073281;28;20041;-77
2021/03/26 07:39:08;;;;;;;23.27;16.17;;;14.20;99.90;;;14.42;59.25;101439.13;5075165;28;20040;-77
2021/03/26 07:42:17;;;;;;;23.52;15.65;;;14.20;99.90;;;14.46;59.18;101446.19;5074684;28;20128;-77
2021/03/26 07:45:04;;;;;;;24.55;16.05;;;14.20;99.90;;;14.57;59.07;101451.41;5073381;28;20494;-77
2021/03/26 07:48:05;;;;;;;26.05;16.10;;;14.30;99.90;;;14.48;58.93;101433.72;5073199;28;20045;-76
2021/03/26 07:50:57;;;;;;;23.73;15.10;;;14.30;99.90;;;14.38;58.62;101437.41;5074273;28;20032;-76
2021/03/26 07:53:45;;;;;;;22.88;15.35;;;14.10;99.90;;;14.47;59.06;101437.31;5069620;28;20055;-76
2021/03/26 07:56:54;;;;;;;26.92;16.83;;;14.20;99.90;;;14.48;59.14;101438.19;5073023;28;20503;-76
2021/03/26 07:59:50;;;;;;;23.00;15.77;;;14.20;99.90;;;14.63;58.71;101449.56;5074108;28;20108;-76
2021/03/26 08:02:46;;;;;;;21.83;15.30;;;14.40;99.90;;;14.59;58.33;101434.50;5073018;28;20063;-76
2021/03/26 08:05:21;;;;;;;24.55;14.32;;;14.40;99.90;;;14.70;58.82;101445.91;5074115;28;20102;-75
2021/03/26 08:08:09;;;;;;;27.63;15.02;;;14.40;99.90;;;14.78;58.12;101451.13;5074069;28;20057;-76
2021/03/26 08:10:50;;;;;;;19.42;14.43;;;14.50;99.90;;;14.69;58.35;101459.25;5074071;28;20044;-75
2021/03/26 08:13:51;;;;;;;21.40;15.73;;;14.50;99.90;;;14.80;58.53;101463.56;5073914;28;20106;-76
2021/03/26 08:16:48;;;;;;;25.00;16.13;;;14.50;99.90;;;14.82;58.09;101455.53;5072525;28;20048;-76
2021/03/26 08:19:21;;;;;;;21.60;16.38;;;14.50;99.90;;;14.97;58.22;101456.22;5073879;28;20114;-77
2021/03/26 08:21:58;;;;;;;25.10;16.15;;;14.70;99.90;;;15.07;57.93;101452.53;5073655;28;20041;-77
2021/03/26 08:25:14;;;;;;;23.70;15.63;;;14.80;99.90;;;15.00;57.39;101418.00;5073750;28;20046;-76
2021/03/26 08:27:50;;;;;;;25.27;15.70;;;14.90;99.90;;;15.03;57.63;101445.47;5031479;28;20041;-76
2021/03/26 08:30:44;;;;;;;26.10;16.77;;;14.80;99.90;;;15.14;57.95;101463.97;5070103;28;20049;-76
2021/03/26 08:33:38;;;;;;;23.20;16.70;;;14.90;99.90;;;14.87;57.78;101459.91;5069265;28;20524;-76
2021/03/26 08:36:24;;;;;;;24.42;16.30;;;14.80;99.90;;;14.90;57.53;101438.56;5073481;28;20451;-76
2021/03/26 08:39:16;;;;;;;27.38;16.85;;;14.80;99.90;;;15.12;57.96;101456.00;5073342;28;20045;-76
2021/03/26 08:41:52;;;;;;;25.55;17.33;;;14.80;99.90;;;15.26;57.30;101456.72;5073032;28;20131;-77
2021/03/26 08:44:22;;;;;;;20.70;15.32;;;15.00;99.90;;;15.16;57.70;101457.72;5073175;28;20040;-76
2021/03/26 08:46:57;;;;;;;26.20;15.95;;;15.00;99.90;;;14.98;57.76;101457.13;5071766;28;20193;-77
2021/03/26 08:49:42;;;;;;;25.58;17.23;;;14.90;99.90;;;14.81;57.92;101454.63;5073391;28;20045;-77
2021/03/26 08:52:25;;;;;;;24.88;15.60;;;14.70;99.90;;;14.87;58.18;101448.34;5073168;28;20049;-76
2021/03/26 08:55:27;;;;;;;26.02;16.75;;;14.70;99.90;;;14.65;59.12;101460.19;5073228;28;20102;-76
2021/03/26 08:58:14;;;;;;;24.83;17.35;;;14.60;99.90;;;14.58;59.06;101446.03;5071912;28;20072;-76
2021/03/26 09:01:10;;;;;;;28.70;18.08;;;14.40;99.90;;;14.72;59.03;101422.81;5073002;28;20044;-77
2021/03/26 09:03:53;;;;;;;27.02;17.77;;;14.50;99.90;;;14.90;59.36;101449.22;5071641;28;20106;-76
2021/03/26 09:06:49;;;;;;;30.20;17.20;;;14.60;99.90;;;14.92;58.36;101442.09;5073134;28;20057;-76
2021/03/26 09:10:08;;;;;;;24.30;17.35;;;14.70;99.90;;;15.19;58.10;101430.16;5072662;28;20117;-77
2021/03/26 09:12:58;;;;;;;26.13;17.13;;;14.90;99.90;;;15.16;58.54;101451.50;5054140;28;20049;-76
2021/03/26 09:16:02;;;;;;;23.90;17.25;;;15.00;99.90;;;15.01;58.29;101436.63;5072878;28;20127;-77
2021/03/26 09:18:49;;;;;;;25.02;17.02;;;14.80;99.90;;;14.91;58.40;101437.66;5072960;28;20052;-76
2021/03/26 09:21:55;;;;;;;22.80;16.33;;;14.70;99.90;;;15.18;58.41;101449.72;5072716;28;20044;-76
2021/03/26 09:25:01;;;;;;;26.40;16.48;;;14.80;99.90;;;15.14;58.04;101419.56;5072694;28;20041;-77
2021/03/26 09:27:36;;;;;;;25.13;17.02;;;15.00;99.90;;;15.33;58.17;101446.81;5072551;28;20040;-77
2021/03/26 09:30:23;;;;;;;27.00;16.58;;;15.10;99.90;;;14.81;57.77;101390.72;5071352;28;20044;-77
2021/03/26 09:32:54;;;;;;;26.75;16.40;;;14.90;99.90;;;15.15;57.36;101423.13;5072272;28;20044;-77
2021/03/26 09:35:28;;;;;;;23.08;15.18;;;14.90;99.90;;;15.25;56.65;101430.94;5072542;28;20037;-76
2021/03/26 09:38:05;;;;;;;26.13;14.68;;;15.10;99.90;;;15.22;56.82;101419.44;5072814;28;20040;-77
2021/03/26 09:40:40;;;;;;;23.02;15.00;;;15.00;99.90;;;15.45;57.38;101424.50;5072517;28;20446;-77
2021/03/26 09:43:24;;;;;;;18.73;13.40;;;15.20;99.90;;;15.70;55.36;101426.72;5072326;28;20052;-76
2021/03/26 09:46:05;;;;;;;17.70;12.32;;;15.40;99.90;;;15.43;55.33;101372.97;5072551;28;20040;-77
2021/03/26 09:48:55;;;;;;;18.33;12.68;;;15.40;99.90;;;15.58;55.25;101413.56;5072590;28;20124;-76
2021/03/26 09:51:51;;;;;;;21.07;12.80;;;15.40;99.90;;;15.37;55.21;101409.44;5072480;28;20040;-76
2021/03/26 09:54:26;;;;;;;16.52;11.90;;;15.30;99.90;;;15.81;55.76;101397.22;5076555;28;20033;-76
2021/03/26 09:57:13;;;;;;;19.00;11.55;;;15.50;99.90;;;15.77;55.11;101392.84;5076630;28;20051;-78
2021/03/26 09:59:51;;;;;;;18.05;12.05;;;15.70;99.90;;;15.81;54.53;101411.44;5076358;28;20044;-78
2021/03/26 10:02:30;;;;;;;16.17;11.98;;;15.60;99.90;;;15.74;54.61;101404.44;5076693;28;20063;-75
2021/03/26 10:05:07;;;;;;;15.18;11.88;;;15.60;99.90;;;16.06;54.24;101391.41;5075024;28;20493;-77
2021/03/26 10:07:44;;;;;;;16.92;11.13;;;15.80;99.90;;;15.95;53.63;101389.84;5076351;28;20044;-77
2021/03/26 10:13:11;;;;;;;15.55;10.63;;;15.60;99.90;;;15.73;54.00;101383.13;5076395;28;20110;-77
2021/03/26 10:15:43;;;;;;;17.80;10.68;;;15.60;99.90;;;15.89;54.58;101403.31;5076133;28;20554;-78
2021/03/26 10:18:17;;;;;;;13.73;9.85;;;15.70;99.90;;;16.05;54.17;101384.31;5074971;28;20106;-77
2021/03/26 10:20:51;;;;;;;15.27;9.95;;;15.80;99.90;;;16.21;52.84;101424.94;5076102;28;20040;-77
2021/03/26 10:23:34;;;;;;;15.80;9.52;;;15.90;99.90;;;15.80;53.72;101387.44;5076296;28;20040;-76
2021/03/26 10:26:12;;;;;;;14.38;9.35;;;15.60;99.90;;;15.69;52.89;101384.06;5075941;28;20490;-77
2021/03/26 10:29:23;;;;;;;11.05;8.95;;;15.40;99.90;;;15.79;54.11;101369.69;5075785;28;20041;-77
2021/03/26 10:31:53;;;;;;;12.70;9.23;;;15.50;99.90;;;15.88;52.62;101388.19;5076107;28;20197;-76
2021/03/26 10:34:32;;;;;;;15.15;9.80;;;15.60;99.90;;;15.98;53.84;101388.00;5076355;28;20098;-76
2021/03/26 10:37:38;;;;;;;17.48;10.98;;;15.70;99.90;;;16.09;54.95;101370.00;5075725;28;20071;-76
2021/03/26 10:40:14;;;;;;;15.40;10.07;;;15.80;99.90;;;15.84;53.60;101386.47;5075699;28;20052;-77
2021/03/26 10:42:50;;;;;;;13.85;9.13;;;15.70;99.90;;;15.61;53.85;101340.66;5074223;28;20056;-76
2021/03/26 10:45:50;;;;;;;13.32;9.10;;;15.50;99.90;;;15.69;52.93;101382.31;5075387;28;20113;-77
2021/03/26 10:48:44;;;;;;;17.55;9.80;;;15.50;99.90;;;15.66;53.72;101358.34;5075362;28;20126;-76
2021/03/26 10:51:45;;;;;;;21.90;10.30;;;15.40;99.90;;;15.78;54.18;101367.91;5074162;28;20056;-76
2021/03/26 10:54:24;;;;;;;14.30;9.02;;;15.50;99.90;;;15.83;52.87;101360.72;5075401;28;20049;-76
2021/03/26 10:57:19;;;;;;;15.27;9.13;;;15.50;99.90;;;15.77;53.25;101339.47;5075428;28;20041;-77
2021/03/26 11:00:01;;;;;;;13.70;9.45;;;15.50;99.90;;;15.60;52.96;101310.44;5075052;28;20048;-76
2021/03/26 11:02:47;;;;;;;14.98;8.77;;;15.50;99.90;;;15.79;53.18;101354.56;5073557;28;20044;-76
2021/03/26 11:05:25;;;;;;;14.95;9.10;;;15.50;99.90;;;15.78;53.76;101325.22;5073971;28;20048;-76
2021/03/26 11:08:28;;;;;;;14.65;9.48;;;15.60;99.90;;;15.84;53.84;101333.13;5075143;28;20041;-76
2021/03/26 11:11:05;;;;;;;15.25;10.20;;;15.50;99.90;;;15.81;54.10;101328.75;5075383;28;20059;-76
2021/03/26 11:13:54;;;;;;;18.35;9.27;;;15.50;99.90;;;15.92;52.59;101350.75;5075167;28;20390;-77
2021/03/26 11:16:25;;;;;;;15.90;9.80;;;15.60;99.90;;;15.81;52.33;101320.75;5075003;28;20482;-76
2021/03/26 11:18:59;;;;;;;14.38;10.35;;;15.70;99.90;;;15.56;53.27;101310.53;5075211;28;20162;-77